Ranyus Sea — 9LU2420 — position and weather

sailwx.info

Track history (hours):
 
Tides and Currents Weather Stations Pressure Air Temp Water Temp Dewpoint Dewpoint Depression Visibility Wind Speed Wind Dir Waves Ship Positions

Ranyus Sea

Last reported at 2018-Jun-07 02:19 UTC. Time now 2018-Jun-17 22:00 UTC.
Position N 37°46' E 025°15'.
Warning: this ship's position is 10 days out of date.

Length 98 m; draft 5.5 m.

Type: Cargo ship. MMSI: 667001617.

Date/timePositionNaut miles runAvg speedWind from/ knotsBaromVisibWave heightAir tempDewpointWater temp
2018-Jun-07 02:19N 37°46' E 025°15'3 8.4
2018-Jun-07 02:00N 37°44' E 025°17'7 8.8
2018-Jun-07 01:12N 37°39' E 025°23'2 9.1
2018-Jun-07 01:00N 37°38' E 025°25'4 8.9
2018-Jun-07 00:30N 37°34' E 025°28'4 8.9
2018-Jun-07 00:00N 37°31' E 025°31'5 9.3
2018-Jun-06 23:28N 37°27' E 025°35'9 9.3
2018-Jun-06 22:30N 37°19' E 025°42'5 9.5
2018-Jun-06 22:00N 37°16' E 025°46'5 9.4
2018-Jun-06 21:30N 37°12' E 025°49'  
Track history (hours):
 
Tides and Currents Weather Stations Pressure Air Temp Water Temp Dewpoint Dewpoint Depression Visibility Wind Speed Wind Dir Waves Ship Positions

Ranyus Sea

Last reported at 2018-Jun-07 02:19 UTC. Time now 2018-Jun-17 22:00 UTC.
Position N 37°46' E 025°15'.
Warning: this ship's position is 10 days out of date.

Length 98 m; draft 5.5 m.

Type: Cargo ship. MMSI: 667001617.

Date/timePositionNaut miles runAvg speedWind from/ knotsBaromVisibWave heightAir tempDewpointWater temp
2018-Jun-07 02:19N 37°46' E 025°15'3 8.4
2018-Jun-07 02:00N 37°44' E 025°17'7 8.8
2018-Jun-07 01:12N 37°39' E 025°23'2 9.1
2018-Jun-07 01:00N 37°38' E 025°25'4 8.9
2018-Jun-07 00:30N 37°34' E 025°28'4 8.9
2018-Jun-07 00:00N 37°31' E 025°31'5 9.3
2018-Jun-06 23:28N 37°27' E 025°35'9 9.3
2018-Jun-06 22:30N 37°19' E 025°42'5 9.5
2018-Jun-06 22:00N 37°16' E 025°46'5 9.4
2018-Jun-06 21:30N 37°12' E 025°49'  

Dump ship's entire track history